Time;durP1;ratioP1;P1;durP2;ratioP2;P2;SDS_P1;SDS_P2;PMS_P1;PMS_P2;Temp;Humidity;BMP_temperature;BMP_pressure;BME280_temperature;BME280_humidity;BME280_pressure;Samples;Min_cycle;Max_cycle;Signal;HPM_P1;HPM_P2
2022/11/22 05:30:43;;;;;;;;;;;;;;;;;;;;;
2022/11/22 05:33:09;;;;;;;4.43;2.05;;;8.80;78.70;;;;;;4955720;29;20038;-81
2022/11/22 05:35:34;;;;;;;2.67;1.45;;;8.80;78.70;;;;;;4955766;29;20490;-83
2022/11/22 05:38:00;;;;;;;6.72;1.85;;;8.80;78.60;;;;;;4950688;29;20036;-86
2022/11/22 05:40:26;;;;;;;6.03;1.30;;;8.80;78.70;;;;;;4937698;29;20036;-88
2022/11/22 05:42:52;;;;;;;3.45;1.80;;;8.80;78.50;;;;;;4948560;29;20066;-82
2022/11/22 05:45:18;;;;;;;5.97;1.92;;;8.80;78.70;;;;;;4956628;29;20447;-85
2022/11/22 05:47:45;;;;;;;4.13;2.05;;;8.80;78.70;;;;;;4956441;28;20031;-87
2022/11/22 05:50:11;;;;;;;1.80;1.52;;;8.80;78.30;;;;;;4971212;28;20495;-80
2022/11/22 05:52:36;;;;;;;3.33;1.35;;;8.90;78.30;;;;;;4960496;28;20028;-87
2022/11/22 05:55:02;;;;;;;4.70;2.75;;;8.80;78.30;;;;;;4960077;29;20031;-79
2022/11/22 05:57:30;;;;;;;3.30;1.52;;;8.80;78.30;;;;;;4953854;28;20030;-88
2022/11/22 05:59:56;;;;;;;6.25;1.15;;;8.80;78.20;;;;;;4956145;29;20032;-81
2022/11/22 06:02:21;;;;;;;5.65;1.35;;;8.90;77.80;;;;;;4944573;29;20037;-89
2022/11/22 06:04:47;;;;;;;8.60;1.52;;;8.90;77.70;;;;;;4958657;29;20052;-87
2022/11/22 06:07:13;;;;;;;3.45;0.85;;;8.90;77.40;;;;;;4961312;29;20034;-88
2022/11/22 06:09:38;;;;;;;7.35;0.93;;;8.90;77.20;;;;;;4958290;29;20039;-85
2022/11/22 06:12:04;;;;;;;1.90;0.93;;;8.90;77.20;;;;;;4955836;29;20042;-85
2022/11/22 06:14:30;;;;;;;3.92;1.20;;;8.90;77.00;;;;;;4960918;29;20028;-84
2022/11/22 06:16:55;;;;;;;10.45;1.65;;;9.00;77.00;;;;;;4954954;29;20528;-85
2022/11/22 06:19:21;;;;;;;3.38;1.05;;;8.90;77.00;;;;;;4944575;29;20091;-86
2022/11/22 06:21:56;;;;;;;8.57;1.67;;;8.80;77.30;;;;;;4959745;29;20042;-80
2022/11/22 06:24:22;;;;;;;6.43;1.83;;;8.90;77.10;;;;;;4950577;29;20054;-82
2022/11/22 06:26:47;;;;;;;2.75;1.05;;;8.90;77.20;;;;;;4959054;29;20063;-82
2022/11/22 06:29:13;;;;;;;1.95;1.42;;;8.90;77.20;;;;;;4957759;29;20744;-82
2022/11/22 06:31:39;;;;;;;6.55;1.67;;;8.90;77.40;;;;;;4958791;28;20134;-82
2022/11/22 06:34:05;;;;;;;2.45;1.17;;;8.90;77.40;;;;;;4954344;29;20090;-81
2022/11/22 06:36:33;;;;;;;5.10;1.27;;;8.90;77.60;;;;;;4945793;29;20054;-83
2022/11/22 06:38:59;;;;;;;6.68;1.70;;;8.90;77.70;;;;;;4955734;29;20051;-83
2022/11/22 06:41:32;;;;;;;1.58;1.02;;;8.90;77.80;;;;;;4940452;29;20036;-82
2022/11/22 06:43:58;;;;;;;2.47;1.13;;;8.90;77.90;;;;;;4939823;29;20062;-83
2022/11/22 06:46:26;;;;;;;10.05;1.25;;;8.90;77.90;;;;;;4949612;29;20154;-81
2022/11/22 06:48:52;;;;;;;3.53;1.25;;;8.90;77.90;;;;;;4960783;28;20091;-82
2022/11/22 06:51:23;;;;;;;3.78;1.40;;;8.90;78.00;;;;;;4951608;29;20523;-83
2022/11/22 06:53:49;;;;;;;9.23;1.13;;;8.90;78.10;;;;;;4957592;29;20534;-82
2022/11/22 06:56:25;;;;;;;3.60;1.10;;;8.90;78.20;;;;;;4958602;29;20034;-82
2022/11/22 06:58:52;;;;;;;4.97;1.38;;;8.90;78.40;;;;;;4959612;29;20035;-81
2022/11/22 07:01:28;;;;;;;6.65;1.35;;;8.90;78.50;;;;;;4958568;28;20037;-82
2022/11/22 07:03:56;;;;;;;2.80;1.25;;;8.90;78.60;;;;;;4959715;28;20027;-83
2022/11/22 07:06:27;;;;;;;1.45;1.20;;;8.90;78.50;;;;;;4948548;29;20055;-82
2022/11/22 07:08:53;;;;;;;5.85;2.45;;;8.90;78.80;;;;;;4940826;29;20059;-82
2022/11/22 07:11:20;;;;;;;5.32;1.65;;;8.80;78.80;;;;;;4955129;29;20042;-83
2022/11/22 07:13:48;;;;;;;3.50;1.85;;;8.80;78.80;;;;;;4959817;28;20106;-83
2022/11/22 07:16:16;;;;;;;7.57;1.30;;;8.80;78.90;;;;;;4959412;28;20125;-83
2022/11/22 07:18:45;;;;;;;6.20;2.00;;;8.80;79.00;;;;;;4959594;28;20028;-82
2022/11/22 07:21:15;;;;;;;16.88;2.42;;;8.90;78.90;;;;;;4960013;28;20032;-80
2022/11/22 07:23:43;;;;;;;5.78;1.77;;;8.90;78.90;;;;;;4958103;29;20031;-84
2022/11/22 07:26:10;;;;;;;4.22;1.38;;;8.80;79.10;;;;;;4959831;28;20039;-81
2022/11/22 07:28:36;;;;;;;4.63;1.50;;;8.80;79.10;;;;;;4959534;28;20034;-82
2022/11/22 07:31:04;;;;;;;7.85;1.77;;;8.80;79.30;;;;;;4959465;28;20432;-82
2022/11/22 07:33:29;;;;;;;4.90;1.77;;;8.80;79.20;;;;;;4959473;29;20035;-81
2022/11/22 07:36:01;;;;;;;7.20;2.10;;;8.90;79.30;;;;;;4959680;28;20535;-81
2022/11/22 07:38:27;;;;;;;12.32;1.85;;;8.90;79.20;;;;;;4956308;28;20027;-82
2022/11/22 07:40:53;;;;;;;7.05;2.30;;;8.90;79.00;;;;;;4959046;29;20036;-82
2022/11/22 07:43:18;;;;;;;2.85;1.10;;;8.90;78.90;;;;;;4958282;29;20158;-83
2022/11/22 07:45:44;;;;;;;4.38;1.40;;;8.90;78.80;;;;;;4959552;29;20038;-82
2022/11/22 07:48:13;;;;;;;13.02;2.60;;;8.90;78.80;;;;;;4957796;29;20043;-82
2022/11/22 07:50:40;;;;;;;8.90;1.92;;;8.90;78.70;;;;;;4958164;29;20031;-81
2022/11/22 07:53:06;;;;;;;9.82;2.67;;;9.00;78.80;;;;;;4959329;28;20020;-84
2022/11/22 07:55:32;;;;;;;11.65;1.77;;;8.90;78.80;;;;;;4958998;28;20066;-82
2022/11/22 07:57:58;;;;;;;5.18;2.00;;;9.00;79.00;;;;;;4959151;29;20063;-82
2022/11/22 08:00:24;;;;;;;6.47;2.10;;;9.10;79.00;;;;;;4958563;29;20118;-82
2022/11/22 08:02:49;;;;;;;11.75;2.10;;;9.00;79.00;;;;;;4958029;29;20062;-82
2022/11/22 08:05:16;;;;;;;4.43;1.65;;;9.10;78.90;;;;;;4957989;29;20582;-81
2022/11/22 08:07:51;;;;;;;6.93;1.65;;;9.10;78.90;;;;;;4958717;29;20031;-83
2022/11/22 08:10:18;;;;;;;10.95;1.55;;;9.10;79.00;;;;;;4958942;28;20031;-83
2022/11/22 08:12:45;;;;;;;6.55;1.73;;;9.10;78.90;;;;;;4958384;28;20023;-82
2022/11/22 08:15:13;;;;;;;3.65;1.70;;;9.10;78.80;;;;;;4957047;29;20043;-82
2022/11/22 08:17:39;;;;;;;3.65;1.60;;;9.20;78.80;;;;;;4957423;29;20023;-81
2022/11/22 08:20:07;;;;;;;16.13;1.83;;;9.20;78.80;;;;;;4958236;29;20041;-82
2022/11/22 08:22:34;;;;;;;2.75;1.40;;;9.20;78.70;;;;;;4957428;29;20562;-82
2022/11/22 08:24:59;;;;;;;9.60;2.35;;;9.20;78.70;;;;;;4957092;29;20033;-79
2022/11/22 08:27:25;;;;;;;6.05;1.95;;;9.20;78.90;;;;;;4951026;29;20024;-83
2022/11/22 08:29:50;;;;;;;7.00;2.17;;;9.20;78.90;;;;;;4938282;29;20023;-82
2022/11/22 08:32:16;;;;;;;11.88;2.85;;;9.30;78.50;;;;;;4939454;29;20150;-82
2022/11/22 08:34:42;;;;;;;9.13;2.00;;;9.30;78.50;;;;;;4951854;29;20039;-82
2022/11/22 08:37:07;;;;;;;10.27;2.28;;;9.30;78.60;;;;;;4955227;29;20641;-81
2022/11/22 08:39:33;;;;;;;5.38;2.03;;;9.30;78.50;;;;;;4939663;29;20066;-81
2022/11/22 08:41:58;;;;;;;4.40;2.00;;;9.40;78.30;;;;;;4939407;29;20028;-81
2022/11/22 08:44:24;;;;;;;5.25;1.80;;;9.40;78.00;;;;;;4939177;29;20506;-81
2022/11/22 08:46:50;;;;;;;5.60;1.95;;;9.50;78.00;;;;;;4941226;29;20034;-82
2022/11/22 08:49:15;;;;;;;5.55;2.03;;;9.50;78.10;;;;;;4958265;29;20472;-82
2022/11/22 08:51:43;;;;;;;4.85;1.60;;;9.60;77.80;;;;;;4958313;29;20027;-81
2022/11/22 08:54:12;;;;;;;9.38;1.80;;;9.70;77.90;;;;;;4938129;29;20032;-82
2022/11/22 08:56:38;;;;;;;3.72;1.42;;;9.80;77.30;;;;;;4939263;29;20173;-82
2022/11/22 08:59:03;;;;;;;3.63;1.60;;;9.80;76.80;;;;;;4942452;29;20032;-82
2022/11/22 09:01:29;;;;;;;5.03;1.63;;;9.80;76.60;;;;;;4958243;29;20098;-82
2022/11/22 09:03:55;;;;;;;9.25;1.77;;;9.80;76.60;;;;;;4958012;29;20031;-82
2022/11/22 09:06:20;;;;;;;2.20;0.90;;;9.80;76.60;;;;;;4944738;29;20035;-82
2022/11/22 09:08:46;;;;;;;7.95;1.92;;;9.80;76.60;;;;;;4938732;29;20086;-82
2022/11/22 09:11:15;;;;;;;6.70;2.00;;;9.80;76.30;;;;;;4947540;29;20038;-82
2022/11/22 09:13:41;;;;;;;3.30;1.30;;;9.90;76.10;;;;;;4957664;29;20043;-83
2022/11/22 09:16:14;;;;;;;6.18;2.78;;;9.90;75.90;;;;;;4957901;29;20027;-81
2022/11/22 09:18:41;;;;;;;3.72;0.95;;;10.10;76.00;;;;;;4947900;28;20487;-83
2022/11/22 09:21:15;;;;;;;7.78;1.20;;;10.20;75.60;;;;;;4941521;29;20529;-83
2022/11/22 09:23:42;;;;;;;5.28;1.13;;;10.20;75.20;;;;;;4957837;28;20065;-83
2022/11/22 09:26:11;;;;;;;5.47;2.13;;;10.20;75.40;;;;;;4957107;28;20110;-83
2022/11/22 09:28:36;;;;;;;3.45;1.33;;;10.30;75.60;;;;;;4954706;29;20039;-82
2022/11/22 09:31:13;;;;;;;3.22;1.25;;;10.30;75.70;;;;;;4954190;28;20579;-82
2022/11/22 09:33:40;;;;;;;8.85;1.50;;;10.30;75.80;;;;;;4956947;29;20039;-82
2022/11/22 09:36:08;;;;;;;7.10;1.77;;;10.40;76.10;;;;;;4956304;29;20189;-82
2022/11/22 09:38:35;;;;;;;7.20;1.33;;;10.40;75.90;;;;;;4957409;28;20050;-83
2022/11/22 09:41:16;;;;;;;5.68;1.63;;;10.50;76.00;;;;;;4957837;28;20056;-83
2022/11/22 09:43:56;;;;;;;9.32;1.27;;;10.60;75.90;;;;;;4957579;29;20158;-83
2022/11/22 09:46:47;;;;;;;5.10;1.33;;;10.60;75.70;;;;;;4957096;29;20391;-83
2022/11/22 09:49:28;;;;;;;8.68;1.55;;;10.60;75.90;;;;;;4957698;29;20476;-81
2022/11/22 09:51:54;;;;;;;6.40;1.50;;;10.70;75.30;;;;;;4955925;29;20031;-84
2022/11/22 09:54:25;;;;;;;5.40;1.30;;;10.70;75.70;;;;;;4956582;29;20046;-83
2022/11/22 09:56:55;;;;;;;6.13;1.35;;;10.70;75.60;;;;;;4956980;28;20079;-83
2022/11/22 09:59:35;;;;;;;7.85;1.10;;;10.80;75.30;;;;;;4956300;29;20036;-80
2022/11/22 10:02:09;;;;;;;7.60;1.50;;;10.80;75.20;;;;;;4955738;29;20047;-82
2022/11/22 10:04:43;;;;;;;4.63;1.48;;;10.90;75.20;;;;;;4957383;28;20415;-83
2022/11/22 10:07:27;;;;;;;4.82;1.33;;;10.90;75.00;;;;;;4957385;28;20024;-82
2022/11/22 10:10:25;;;;;;;5.40;1.73;;;11.00;75.10;;;;;;4949327;29;20042;-82
2022/11/22 10:13:14;;;;;;;4.57;1.55;;;11.10;74.60;;;;;;4937639;29;20046;-81
2022/11/22 10:15:54;;;;;;;5.60;1.27;;;11.20;74.30;;;;;;4938144;29;20054;-82
2022/11/22 10:18:30;;;;;;;6.38;1.50;;;11.20;73.90;;;;;;4942617;29;20042;-82
2022/11/22 10:20:56;;;;;;;8.40;1.65;;;11.20;73.90;;;;;;4957609;28;20031;-81
2022/11/22 10:23:24;;;;;;;5.30;1.45;;;11.20;73.50;;;;;;4956715;29;20043;-81
2022/11/22 10:26:00;;;;;;;4.00;1.20;;;11.20;73.50;;;;;;4957090;28;20033;-81
2022/11/22 10:28:36;;;;;;;2.33;1.00;;;11.20;73.30;;;;;;4952505;29;20533;-81
2022/11/22 10:31:10;;;;;;;3.35;1.67;;;11.30;72.50;;;;;;4936890;29;20062;-81
2022/11/22 10:33:59;;;;;;;6.97;1.80;;;11.40;73.20;;;;;;4938314;29;20028;-82
2022/11/22 10:36:33;;;;;;;3.33;1.25;;;11.40;72.80;;;;;;4957252;28;20067;-82
2022/11/22 10:39:21;;;;;;;4.07;1.85;;;11.50;72.80;;;;;;4959749;29;20031;-83
2022/11/22 10:41:53;;;;;;;4.15;1.27;;;11.50;73.00;;;;;;4960772;29;20042;-82
2022/11/22 10:44:36;;;;;;;6.63;1.58;;;11.70;72.60;;;;;;4942821;29;20027;-81
2022/11/22 10:47:07;;;;;;;16.52;1.67;;;11.70;72.50;;;;;;4941399;29;20023;-82
2022/11/22 10:49:57;;;;;;;7.20;1.23;;;11.70;72.70;;;;;;4951395;29;20030;-82
2022/11/22 10:52:45;;;;;;;7.22;1.17;;;11.70;72.50;;;;;;4958926;29;20034;-80
2022/11/22 10:55:17;;;;;;;4.72;1.20;;;11.70;72.20;;;;;;4960720;28;20609;-80
2022/11/22 10:58:02;;;;;;;6.72;1.70;;;11.80;71.70;;;;;;4958583;29;20037;-81
2022/11/22 11:00:31;;;;;;;12.10;1.92;;;11.80;72.30;;;;;;4941350;29;20032;-80
2022/11/22 11:03:28;;;;;;;12.82;1.83;;;11.80;71.70;;;;;;4941060;29;20035;-80
2022/11/22 11:06:06;;;;;;;5.25;1.98;;;11.80;70.80;;;;;;4957902;29;20594;-81
2022/11/22 11:08:41;;;;;;;11.18;1.40;;;11.90;71.00;;;;;;4959145;29;20035;-82
2022/11/22 11:11:06;;;;;;;5.32;1.85;;;11.90;70.20;;;;;;4958884;29;20079;-82
2022/11/22 11:13:38;;;;;;;7.68;1.40;;;11.90;69.90;;;;;;4960154;28;20035;-82
2022/11/22 11:16:08;;;;;;;6.43;1.48;;;11.90;69.40;;;;;;4955432;29;20039;-84
2022/11/22 11:18:49;;;;;;;8.07;1.80;;;12.00;69.10;;;;;;4949419;29;20579;-81
2022/11/22 11:21:14;;;;;;;3.67;1.30;;;12.00;69.40;;;;;;4960078;28;20028;-82
2022/11/22 11:23:41;;;;;;;3.88;1.17;;;12.00;68.60;;;;;;4958365;29;20040;-81
2022/11/22 11:26:36;;;;;;;6.57;2.28;;;12.00;69.00;;;;;;4958531;29;20059;-82
2022/11/22 11:29:16;;;;;;;7.45;1.50;;;12.10;68.80;;;;;;4938914;29;20047;-83
2022/11/22 11:31:48;;;;;;;12.00;1.95;;;12.20;69.10;;;;;;4959841;28;20053;-81
2022/11/22 11:34:28;;;;;;;6.90;1.38;;;12.20;68.50;;;;;;4954346;29;20402;-81
2022/11/22 11:36:58;;;;;;;6.60;1.20;;;12.20;69.00;;;;;;4955103;29;20049;-81
2022/11/22 11:39:29;;;;;;;3.45;0.85;;;12.20;68.60;;;;;;4940434;29;20027;-81
2022/11/22 11:41:56;;;;;;;11.43;1.80;;;12.30;68.70;;;;;;4955106;29;20106;-80
2022/11/22 11:44:30;;;;;;;10.02;1.38;;;12.40;68.30;;;;;;4940734;29;20043;-83
2022/11/22 11:46:56;;;;;;;5.35;2.20;;;12.50;68.40;;;;;;4954925;29;20020;-85
2022/11/22 11:49:28;;;;;;;10.57;2.00;;;12.50;68.80;;;;;;4947881;29;20027;-81
2022/11/22 11:52:08;;;;;;;5.22;1.45;;;12.40;68.50;;;;;;4954001;28;20022;-81
2022/11/22 11:54:37;;;;;;;7.18;1.63;;;12.40;67.90;;;;;;4958905;28;20067;-81
2022/11/22 11:57:03;;;;;;;4.63;1.08;;;12.50;68.80;;;;;;4959507;29;20023;-81
2022/11/22 11:59:38;;;;;;;6.30;1.88;;;12.50;68.60;;;;;;4959292;28;20031;-81
2022/11/22 12:02:18;;;;;;;5.75;1.73;;;12.40;68.40;;;;;;4958980;29;20039;-80
2022/11/22 12:05:02;;;;;;;;;;;12.50;68.50;;;;;;4945702;29;20119;-82
2022/11/22 12:07:34;;;;;;;6.03;1.70;;;12.30;68.00;;;;;;4939961;29;19906;-82
2022/11/22 12:10:01;;;;;;;6.30;1.10;;;12.40;68.00;;;;;;4940049;29;20024;-81
2022/11/22 12:12:50;;;;;;;4.60;1.30;;;12.40;67.60;;;;;;4957327;29;20028;-81
2022/11/22 12:15:56;;;;;;;8.65;2.00;;;12.50;67.50;;;;;;4957583;29;20024;-81
2022/11/22 12:18:43;;;;;;;7.78;3.00;;;12.60;67.80;;;;;;4948511;29;20056;-81
2022/11/22 12:21:21;;;;;;;7.30;1.40;;;12.70;67.60;;;;;;4940818;29;20028;-82
2022/11/22 12:23:51;;;;;;;8.20;1.48;;;12.60;67.00;;;;;;4953980;28;20134;-82
2022/11/22 12:26:17;;;;;;;7.25;2.08;;;12.60;67.00;;;;;;4939588;29;20024;-81
2022/11/22 12:28:43;;;;;;;8.38;1.80;;;12.60;66.50;;;;;;4939437;29;20020;-82
2022/11/22 12:31:14;;;;;;;8.52;1.45;;;12.60;66.50;;;;;;4949158;29;20058;-82
2022/11/22 12:33:43;;;;;;;7.82;1.90;;;12.70;66.90;;;;;;4957379;29;20386;-82
2022/11/22 12:36:24;;;;;;;9.63;2.25;;;12.70;67.20;;;;;;4958487;28;20098;-81
2022/11/22 12:38:51;;;;;;;6.72;1.75;;;12.70;67.50;;;;;;4957193;29;20027;-82
2022/11/22 12:41:20;;;;;;;6.55;1.70;;;12.80;66.70;;;;;;4957922;28;20791;-81
2022/11/22 12:43:52;;;;;;;5.15;1.40;;;12.80;67.00;;;;;;4972999;28;20027;-82
2022/11/22 12:46:22;;;;;;;5.82;1.80;;;12.90;66.90;;;;;;4958086;29;20027;-81
2022/11/22 12:49:10;;;;;;;9.98;1.80;;;13.00;66.40;;;;;;4958590;28;20074;-83
2022/11/22 12:51:49;;;;;;;8.77;1.65;;;12.90;65.90;;;;;;4956913;29;20055;-81
2022/11/22 12:54:30;;;;;;;8.65;1.40;;;13.00;65.90;;;;;;4942475;29;20031;-83
2022/11/22 12:57:00;;;;;;;5.57;1.20;;;13.00;66.20;;;;;;4956947;29;20063;-82
2022/11/22 12:59:42;;;;;;;7.13;1.33;;;13.00;66.20;;;;;;4957993;28;20034;-81
2022/11/22 13:02:24;;;;;;;14.85;1.55;;;13.00;66.00;;;;;;4956413;29;20062;-82
2022/11/22 13:05:08;;;;;;;9.25;2.08;;;12.90;66.70;;;;;;4958151;29;20024;-82
2022/11/22 13:07:52;;;;;;;8.57;1.95;;;13.00;66.60;;;;;;4958096;28;20023;-81
2022/11/22 13:10:30;;;;;;;6.63;1.65;;;13.10;64.40;;;;;;4957684;29;20030;-81
2022/11/22 13:12:58;;;;;;;5.47;1.38;;;13.30;64.20;;;;;;4957805;28;20031;-81
2022/11/22 13:15:33;;;;;;;6.10;1.70;;;13.40;64.70;;;;;;4941381;28;20024;-81
2022/11/22 13:18:00;;;;;;;9.55;1.95;;;13.50;64.10;;;;;;4942140;29;20031;-81
2022/11/22 13:20:32;;;;;;;8.40;1.60;;;13.60;64.10;;;;;;4956799;29;20027;-81
2022/11/22 13:23:06;;;;;;;3.58;0.93;;;13.60;64.30;;;;;;4953745;28;20038;-80
2022/11/22 13:25:53;;;;;;;7.35;1.70;;;13.60;62.90;;;;;;4957648;29;20031;-82
2022/11/22 13:28:23;;;;;;;5.72;1.08;;;13.60;61.90;;;;;;4957770;29;20023;-80
2022/11/22 13:31:10;;;;;;;8.75;1.52;;;13.70;62.40;;;;;;4952781;28;20071;-80
2022/11/22 13:33:42;;;;;;;8.75;1.92;;;13.80;61.10;;;;;;4938576;29;20032;-81
2022/11/22 13:36:30;;;;;;;5.55;1.77;;;13.80;61.10;;;;;;4938699;29;20027;-81
2022/11/22 13:39:12;;;;;;;4.93;1.85;;;13.80;62.10;;;;;;4939054;29;20038;-81
2022/11/22 13:41:56;;;;;;;9.30;1.52;;;13.70;63.00;;;;;;4953206;29;20032;-80
2022/11/22 13:44:21;;;;;;;6.28;1.13;;;13.70;60.80;;;;;;4938756;29;20028;-80
2022/11/22 13:47:12;;;;;;;4.72;1.23;;;13.60;61.00;;;;;;4957708;29;20388;-82
2022/11/22 13:49:44;;;;;;;9.45;2.40;;;13.40;61.00;;;;;;4956607;29;20405;-81
2022/11/22 13:52:15;;;;;;;6.75;1.52;;;13.40;62.20;;;;;;4954821;29;20403;-80
2022/11/22 13:54:47;;;;;;;12.15;1.73;;;13.30;62.50;;;;;;4956394;29;20530;-80
2022/11/22 13:57:35;;;;;;;9.27;1.70;;;13.30;62.70;;;;;;4957982;29;20471;-82
2022/11/22 14:00:13;;;;;;;10.45;2.00;;;13.40;63.30;;;;;;4956910;28;20078;-82
2022/11/22 14:02:46;;;;;;;6.10;1.52;;;13.40;63.30;;;;;;4956302;29;20045;-81
2022/11/22 14:05:28;;;;;;;9.40;1.65;;;13.40;63.20;;;;;;4956227;29;20044;-81
2022/11/22 14:07:55;;;;;;;7.00;1.40;;;13.20;63.00;;;;;;4957436;29;20402;-81
2022/11/22 14:11:02;;;;;;;8.73;1.60;;;13.10;63.20;;;;;;4956858;28;20031;-81
2022/11/22 14:13:36;;;;;;;9.18;1.20;;;13.00;61.80;;;;;;4959616;29;20031;-80
2022/11/22 14:16:11;;;;;;;6.93;1.75;;;12.80;60.00;;;;;;4960984;28;20750;-82
2022/11/22 14:18:47;;;;;;;5.38;1.52;;;12.70;59.30;;;;;;4957468;29;20042;-81
2022/11/22 14:21:38;;;;;;;6.78;1.60;;;12.70;59.20;;;;;;4941927;29;20031;-82
2022/11/22 14:24:31;;;;;;;7.78;1.83;;;12.70;59.40;;;;;;4941687;29;20038;-81
2022/11/22 14:27:12;;;;;;;7.25;2.00;;;12.70;59.70;;;;;;4941784;29;20083;-81
2022/11/22 14:29:40;;;;;;;;;;;12.80;60.00;;;;;;4942026;29;20111;-81
2022/11/22 14:32:18;;;;;;;8.40;1.77;;;12.80;60.00;;;;;;4942785;29;19922;-81
2022/11/22 14:35:02;;;;;;;5.75;1.50;;;12.80;60.10;;;;;;4960889;28;20070;-81
2022/11/22 14:37:33;;;;;;;5.25;2.40;;;12.90;60.40;;;;;;4960710;29;20110;-82
2022/11/22 14:40:12;;;;;;;7.40;2.03;;;12.90;60.40;;;;;;4943022;29;20034;-81
2022/11/22 14:42:42;;;;;;;7.13;2.05;;;12.90;60.50;;;;;;4952904;29;20039;-82
2022/11/22 14:45:15;;;;;;;5.43;1.30;;;12.90;59.80;;;;;;4959297;29;20095;-81
2022/11/22 14:47:43;;;;;;;11.85;1.38;;;12.90;59.70;;;;;;4942029;29;20583;-82
2022/11/22 14:50:28;;;;;;;5.40;1.20;;;12.90;58.30;;;;;;4941377;29;20103;-81
2022/11/22 14:53:43;;;;;;;9.02;1.58;;;13.00;58.70;;;;;;4950776;29;20038;-81
2022/11/22 14:56:15;;;;;;;5.13;1.05;;;13.00;58.80;;;;;;4945698;28;20035;-82
2022/11/22 14:58:56;;;;;;;9.52;1.63;;;13.00;57.20;;;;;;4956057;29;20452;-81
2022/11/22 15:01:35;;;;;;;7.75;1.85;;;13.00;57.20;;;;;;4941105;29;20114;-81
2022/11/22 15:04:39;;;;;;;3.33;1.23;;;13.00;57.80;;;;;;4941471;29;20095;-81
2022/11/22 15:07:29;;;;;;;7.07;1.52;;;13.00;57.60;;;;;;4941064;29;20472;-81
2022/11/22 15:10:09;;;;;;;8.38;1.40;;;13.00;57.70;;;;;;4957473;29;20075;-81
2022/11/22 15:13:04;;;;;;;5.88;1.30;;;13.00;57.60;;;;;;4941011;29;20082;-82
2022/11/22 15:15:38;;;;;;;7.35;1.00;;;13.00;57.90;;;;;;4944520;29;20113;-81
2022/11/22 15:18:17;;;;;;;7.15;2.47;;;13.00;57.80;;;;;;4959291;29;20511;-81
2022/11/22 15:20:44;;;;;;;6.07;2.45;;;12.90;58.40;;;;;;4959613;28;20102;-81
2022/11/22 15:23:26;;;;;;;6.40;1.92;;;12.80;59.20;;;;;;4956481;28;20408;-81
2022/11/22 15:26:03;;;;;;;6.75;1.17;;;12.80;58.70;;;;;;4940782;29;20067;-83
2022/11/22 15:28:29;;;;;;;6.80;1.25;;;12.70;59.30;;;;;;4954121;29;20027;-82
2022/11/22 15:31:06;;;;;;;8.38;1.88;;;12.70;59.00;;;;;;4959813;28;20047;-82
2022/11/22 15:33:36;;;;;;;10.25;2.92;;;12.60;60.20;;;;;;4959796;28;20038;-81
2022/11/22 15:36:07;;;;;;;7.15;1.38;;;12.50;60.20;;;;;;4940506;28;20063;-81
2022/11/22 15:38:38;;;;;;;4.13;1.40;;;12.40;60.90;;;;;;4940603;29;20043;-82
2022/11/22 15:41:05;;;;;;;8.75;1.92;;;12.40;60.70;;;;;;4940663;29;20500;-80
2022/11/22 15:43:31;;;;;;;7.10;1.55;;;12.30;61.60;;;;;;4940741;29;20043;-82
2022/11/22 15:45:59;;;;;;;3.53;1.00;;;12.20;61.00;;;;;;4940139;29;20082;-82
2022/11/22 15:48:32;;;;;;;7.63;1.67;;;12.20;61.90;;;;;;4940284;29;20051;-82
2022/11/22 15:51:01;;;;;;;8.00;1.60;;;12.10;61.60;;;;;;4940412;29;20550;-82
2022/11/22 15:53:28;;;;;;;7.63;1.98;;;12.10;61.70;;;;;;4954210;29;20046;-82
2022/11/22 15:56:15;;;;;;;3.38;1.42;;;12.00;62.10;;;;;;4959534;28;20483;-81
2022/11/22 15:58:45;;;;;;;9.80;1.90;;;12.00;61.60;;;;;;4957199;29;20058;-81
2022/11/22 16:01:15;;;;;;;5.20;1.70;;;11.90;62.00;;;;;;4958940;28;20507;-82
2022/11/22 16:03:42;;;;;;;6.88;1.48;;;11.90;62.00;;;;;;4958886;28;20130;-82
2022/11/22 16:06:17;;;;;;;9.70;1.95;;;11.90;61.70;;;;;;4959078;28;20023;-81
2022/11/22 16:08:48;;;;;;;6.95;2.15;;;11.90;61.90;;;;;;4959096;28;20034;-80
2022/11/22 16:11:29;;;;;;;5.65;1.77;;;11.80;62.00;;;;;;4958777;28;20051;-81
2022/11/22 16:13:55;;;;;;;6.57;1.75;;;11.80;62.40;;;;;;4958548;28;20446;-81
2022/11/22 16:16:32;;;;;;;6.10;2.15;;;11.80;62.80;;;;;;4959063;28;20039;-81
2022/11/22 16:19:22;;;;;;;10.93;2.20;;;11.70;63.40;;;;;;4959010;28;20058;-81
2022/11/22 16:21:58;;;;;;;5.22;2.13;;;11.70;63.90;;;;;;4958811;28;20041;-81
2022/11/22 16:24:28;;;;;;;8.18;1.98;;;11.70;64.00;;;;;;4958221;28;20020;-81
2022/11/22 16:27:00;;;;;;;4.22;1.75;;;11.70;64.00;;;;;;4958039;28;20637;-82
2022/11/22 16:29:29;;;;;;;5.20;2.30;;;11.60;64.30;;;;;;4955998;28;20050;-84
2022/11/22 16:31:59;;;;;;;7.90;2.15;;;11.60;64.40;;;;;;4951781;28;20069;-85
2022/11/22 16:34:25;;;;;;;7.40;1.85;;;11.60;64.50;;;;;;4946154;29;20032;-84
2022/11/22 16:36:50;;;;;;;5.63;1.45;;;11.60;64.40;;;;;;4949471;29;20038;-87
2022/11/22 16:39:16;;;;;;;8.23;2.15;;;11.60;64.40;;;;;;4949123;29;20065;-85
2022/11/22 16:41:44;;;;;;;6.32;1.95;;;11.50;64.70;;;;;;4948777;29;20016;-86
2022/11/22 16:44:12;;;;;;;8.30;1.90;;;11.50;64.80;;;;;;4948385;29;20078;-86
2022/11/22 16:46:39;;;;;;;7.15;2.25;;;11.40;65.20;;;;;;4951669;29;20038;-84
2022/11/22 16:49:19;;;;;;;7.85;1.85;;;11.40;65.40;;;;;;4948861;29;20028;-83
2022/11/22 16:51:47;;;;;;;8.07;2.35;;;11.40;65.50;;;;;;4948963;29;20116;-85
2022/11/22 16:54:19;;;;;;;6.85;2.13;;;11.30;65.90;;;;;;4950586;28;20031;-84
2022/11/22 16:56:45;;;;;;;6.78;1.90;;;11.30;65.90;;;;;;4950259;29;20032;-84
2022/11/22 16:59:11;;;;;;;4.70;1.85;;;11.20;66.00;;;;;;4947775;28;20045;-86
2022/11/22 17:01:40;;;;;;;6.32;1.67;;;11.30;66.00;;;;;;4949281;29;20035;-88
2022/11/22 17:04:25;;;;;;;5.07;1.80;;;11.20;66.50;;;;;;4956281;29;20035;-88
2022/11/22 17:06:52;;;;;;;7.78;2.15;;;11.20;66.50;;;;;;4947764;29;20413;-89
2022/11/22 17:09:18;;;;;;;7.78;1.55;;;11.20;66.60;;;;;;4948587;29;20015;-86
2022/11/22 17:11:44;;;;;;;8.18;2.00;;;11.20;66.70;;;;;;4950991;29;20023;-80
2022/11/22 17:14:14;;;;;;;9.95;2.15;;;11.10;67.20;;;;;;4945542;29;20023;-83
2022/11/22 17:16:41;;;;;;;10.93;2.08;;;11.10;67.30;;;;;;4946668;29;20521;-84
2022/11/22 17:19:07;;;;;;;6.63;1.77;;;11.10;67.50;;;;;;4947791;29;20427;-88
2022/11/22 17:21:33;;;;;;;6.22;2.00;;;11.00;67.70;;;;;;4952251;28;20039;-88
2022/11/22 17:24:05;;;;;;;10.48;2.08;;;11.00;67.90;;;;;;4954676;29;20522;-83
2022/11/22 17:26:52;;;;;;;5.45;1.92;;;10.90;68.10;;;;;;4955595;28;20059;-90
2022/11/22 17:29:17;;;;;;;9.65;1.92;;;10.90;68.20;;;;;;4956049;28;20035;-90
2022/11/22 17:31:46;;;;;;;6.38;2.30;;;10.90;68.50;;;;;;4956336;28;20051;-90
2022/11/22 17:34:12;;;;;;;7.10;2.80;;;10.90;68.80;;;;;;4956305;29;20038;-90
2022/11/22 17:36:37;;;;;;;11.70;3.33;;;10.90;68.60;;;;;;4956694;29;20046;-90
2022/11/22 17:39:06;;;;;;;6.53;2.85;;;10.80;68.70;;;;;;4957149;29;20027;-90
2022/11/22 17:41:32;;;;;;;8.48;2.70;;;10.80;68.80;;;;;;4955787;28;20043;-90
2022/11/22 17:43:58;;;;;;;11.95;3.38;;;10.80;68.90;;;;;;4960310;28;20397;-90
2022/11/22 17:46:24;;;;;;;6.75;2.80;;;10.80;69.10;;;;;;4947973;29;20056;-90
2022/11/22 17:48:56;;;;;;;8.80;2.38;;;10.80;69.30;;;;;;4953582;29;20031;-89
2022/11/22 17:51:22;;;;;;;12.45;2.42;;;10.80;69.20;;;;;;4952852;29;20071;-86
2022/11/22 17:53:48;;;;;;;9.20;2.20;;;10.80;69.40;;;;;;4959924;29;20019;-86
2022/11/22 17:56:14;;;;;;;7.30;2.60;;;10.70;69.70;;;;;;4959381;29;20058;-87
2022/11/22 17:58:40;;;;;;;8.45;2.30;;;10.70;69.70;;;;;;4960088;29;20032;-87
2022/11/22 18:01:08;;;;;;;7.22;2.78;;;10.80;69.80;;;;;;4950920;28;20406;-86
2022/11/22 18:03:34;;;;;;;6.68;2.55;;;10.70;69.90;;;;;;4942269;29;20113;-88
2022/11/22 18:06:00;;;;;;;6.32;2.70;;;10.70;70.00;;;;;;4954293;29;20463;-88
2022/11/22 18:08:26;;;;;;;6.68;2.60;;;10.70;70.10;;;;;;4958606;28;20090;-88
2022/11/22 18:10:53;;;;;;;8.00;2.63;;;10.80;70.20;;;;;;4955607;29;21759;-87
2022/11/22 18:13:19;;;;;;;7.80;2.83;;;10.80;70.10;;;;;;4948333;29;20031;-80
2022/11/22 18:15:44;;;;;;;5.00;2.88;;;10.80;70.10;;;;;;4956840;28;20039;-80
2022/11/22 18:18:16;;;;;;;7.32;3.28;;;10.80;70.10;;;;;;4951612;29;20020;-79
2022/11/22 18:20:49;;;;;;;9.27;2.92;;;10.80;70.20;;;;;;4951852;28;20567;-79
2022/11/22 18:23:15;;;;;;;9.05;2.60;;;10.80;70.30;;;;;;4951619;29;20023;-83
2022/11/22 18:25:42;;;;;;;5.75;3.05;;;10.80;70.30;;;;;;4955148;29;20039;-75
2022/11/22 18:28:08;;;;;;;9.85;4.35;;;10.80;70.30;;;;;;4957192;28;20035;-76
2022/11/22 18:30:35;;;;;;;15.95;6.78;;;10.80;70.70;;;;;;4958778;28;20583;-75
2022/11/22 18:33:02;;;;;;;10.13;5.78;;;10.70;70.40;;;;;;4960637;28;20026;-76
2022/11/22 18:35:28;;;;;;;16.20;8.10;;;10.70;70.90;;;;;;4956383;29;20032;-76
2022/11/22 18:37:54;;;;;;;14.98;7.25;;;10.60;71.10;;;;;;4956266;29;20055;-76
2022/11/22 18:40:19;;;;;;;8.98;4.72;;;10.60;71.10;;;;;;4960217;28;20031;-76
2022/11/22 18:42:49;;;;;;;6.63;4.32;;;10.50;71.20;;;;;;4955508;29;20020;-73
2022/11/22 18:45:15;;;;;;;12.97;4.87;;;10.50;71.40;;;;;;4961493;29;20024;-78